Time;durP1;ratioP1;P1;durP2;ratioP2;P2;SDS_P1;SDS_P2;PMS_P1;PMS_P2;Temp;Humidity;BMP_temperature;BMP_pressure;BME280_temperature;BME280_humidity;BME280_pressure;Samples;Min_cycle;Max_cycle;Signal;HPM_P1;HPM_P2
2023/05/03 00:01:43;;;;;;;9.67;1.80;;;13.80;53.80;;;13.91;40.46;95242.69;4985929;28;20778;-57
2023/05/03 00:04:12;;;;;;;1.60;1.50;;;13.80;53.70;;;13.90;40.44;95233.13;4995715;28;20458;-55
2023/05/03 00:06:40;;;;;;;6.40;1.80;;;13.80;53.90;;;13.89;40.61;95234.91;4991179;28;20445;-56
2023/05/03 00:09:09;;;;;;;2.50;1.67;;;13.80;53.80;;;13.89;40.42;95234.91;4994926;28;20493;-56
2023/05/03 00:11:36;;;;;;;2.90;1.43;;;13.80;54.00;;;13.90;40.80;95236.59;4989135;28;20563;-73
2023/05/03 00:14:04;;;;;;;4.20;2.10;;;13.80;54.00;;;13.88;40.34;95241.22;4995016;28;20995;-72
2023/05/03 00:16:33;;;;;;;3.20;2.10;;;13.70;53.60;;;13.84;40.12;95234.56;4991124;28;20461;-55
2023/05/03 00:19:00;;;;;;;4.83;1.30;;;13.70;53.60;;;13.82;40.38;95241.81;4991156;28;20569;-73
2023/05/03 00:21:27;;;;;;;2.70;2.20;;;13.70;53.70;;;13.80;40.56;95241.97;4992123;28;20931;-73
2023/05/03 00:23:54;;;;;;;2.87;2.00;;;13.70;53.80;;;13.79;40.59;95239.47;4991700;28;20544;-55
2023/05/03 00:26:22;;;;;;;1.60;1.50;;;13.70;53.80;;;13.77;40.44;95246.69;4995334;28;20535;-71
2023/05/03 00:28:49;;;;;;;1.50;1.40;;;13.60;53.90;;;13.75;40.77;95243.38;4993347;28;20497;-71
2023/05/03 00:31:17;;;;;;;4.63;1.90;;;13.60;54.10;;;13.71;40.96;95242.88;5000486;28;20457;-73
2023/05/03 00:33:45;;;;;;;2.07;1.87;;;13.60;54.30;;;13.69;40.89;95257.19;4997724;28;20526;-74
2023/05/03 00:36:14;;;;;;;1.63;1.53;;;13.50;54.60;;;13.67;41.11;95233.56;4994956;28;20450;-55
2023/05/03 00:38:42;;;;;;;2.70;1.70;;;13.60;54.70;;;13.67;41.27;95230.09;4993371;28;20473;-73
2023/05/03 00:41:10;;;;;;;2.33;1.83;;;13.50;54.60;;;13.66;41.49;95249.56;4997886;28;20450;-73
2023/05/03 00:43:37;;;;;;;6.67;1.63;;;13.50;54.60;;;13.62;41.38;95244.59;4999459;28;20466;-56
2023/05/03 00:46:05;;;;;;;2.90;1.40;;;13.50;54.90;;;13.58;41.62;95215.97;4997224;28;21019;-56
2023/05/03 00:48:33;;;;;;;2.53;1.80;;;13.50;55.10;;;13.56;41.61;95250.47;4996634;28;20593;-55
2023/05/03 00:51:04;;;;;;;13.03;1.93;;;13.40;55.10;;;13.49;42.36;95238.81;4996218;28;20959;-73
2023/05/03 00:53:31;;;;;;;1.97;1.70;;;13.40;55.30;;;13.45;41.87;95234.81;4995575;28;21018;-73
2023/05/03 00:55:59;;;;;;;4.13;1.70;;;13.30;55.20;;;13.42;42.19;95240.41;4999262;28;20470;-56
2023/05/03 00:58:26;;;;;;;2.23;2.03;;;13.30;55.50;;;13.37;42.21;95269.06;4992210;28;20490;-57
2023/05/03 01:00:53;;;;;;;5.50;1.60;;;13.30;55.60;;;13.33;42.08;95230.69;5000355;28;20529;-57
2023/05/03 01:03:20;;;;;;;2.83;1.50;;;13.20;55.50;;;13.31;42.22;95240.56;4989233;28;20479;-74
2023/05/03 01:05:54;;;;;;;9.97;1.60;;;13.20;55.50;;;13.28;42.11;95247.81;5000373;28;20459;-57
2023/05/03 01:08:28;;;;;;;5.20;1.77;;;13.20;55.60;;;13.26;41.98;95248.91;4995587;28;20504;-74
2023/05/03 01:11:00;;;;;;;2.17;2.03;;;13.20;55.70;;;13.24;42.34;95238.50;4996784;28;20875;-57
2023/05/03 01:13:34;;;;;;;2.40;1.67;;;13.10;55.60;;;13.23;42.20;95241.28;4992274;28;20835;-56
2023/05/03 01:16:06;;;;;;;3.60;1.40;;;13.10;55.60;;;13.21;42.31;95236.16;4997224;28;20516;-57
2023/05/03 01:18:38;;;;;;;2.20;2.00;;;13.10;55.60;;;13.20;42.25;95237.16;4994435;28;20521;-73
2023/05/03 01:21:05;;;;;;;3.80;1.70;;;13.10;55.60;;;13.20;42.32;95223.09;4989649;28;21079;-57
2023/05/03 01:23:40;;;;;;;7.13;1.63;;;13.10;55.60;;;13.19;42.39;95216.16;4991972;28;20478;-57
2023/05/03 01:26:21;;;;;;;6.53;1.63;;;13.10;55.70;;;13.19;42.19;95226.72;4987792;28;20963;-73
2023/05/03 01:28:48;;;;;;;3.30;1.37;;;13.10;55.70;;;13.17;42.29;95236.63;4995081;28;20520;-57
2023/05/03 01:31:19;;;;;;;2.20;2.10;;;13.00;55.60;;;13.14;42.30;95229.81;4992108;28;20461;-56
2023/05/03 01:33:52;;;;;;;2.30;1.47;;;13.00;55.60;;;13.11;42.09;95224.00;4993420;28;21026;-72
2023/05/03 01:36:23;;;;;;;2.73;1.90;;;13.00;55.60;;;13.10;42.26;95225.78;4994628;28;20453;-57
2023/05/03 01:38:50;;;;;;;6.10;1.90;;;13.00;55.70;;;13.11;42.46;95219.53;4987969;28;20482;-73
2023/05/03 01:41:18;;;;;;;4.50;2.00;;;13.00;55.70;;;13.15;42.08;95220.94;4994088;28;20489;-56
2023/05/03 01:43:46;;;;;;;1.70;1.60;;;13.00;55.60;;;13.13;42.04;95228.16;4993797;28;20485;-57
2023/05/03 01:46:14;;;;;;;2.90;1.73;;;13.00;55.60;;;13.09;42.57;95206.50;4994325;28;20536;-57
2023/05/03 01:48:41;;;;;;;1.60;1.50;;;13.00;55.60;;;13.08;42.25;95225.13;4994271;28;20503;-72
2023/05/03 01:51:09;;;;;;;3.10;1.73;;;12.90;55.60;;;13.02;42.32;95204.56;4995283;28;20851;-55
2023/05/03 01:53:37;;;;;;;6.10;2.20;;;12.90;55.60;;;12.99;42.37;95208.34;4991497;28;20477;-56
2023/05/03 01:56:05;;;;;;;6.13;2.00;;;12.90;55.70;;;12.95;42.28;95192.94;4999831;28;20483;-71
2023/05/03 01:58:32;;;;;;;2.13;1.87;;;12.80;55.70;;;12.91;42.31;95214.34;4990057;28;20477;-74
2023/05/03 02:01:00;;;;;;;2.93;1.87;;;12.80;55.70;;;12.86;42.57;95200.75;4988674;28;20458;-56
2023/05/03 02:03:28;;;;;;;11.73;2.10;;;12.80;55.80;;;12.84;42.59;95200.09;4991348;28;20487;-72
2023/05/03 02:05:55;;;;;;;11.03;2.87;;;12.80;55.80;;;12.81;42.60;95192.44;4992315;28;20469;-56
2023/05/03 02:08:22;;;;;;;2.77;1.80;;;12.70;55.80;;;12.81;42.50;95181.91;4993728;28;20513;-56
2023/05/03 02:10:50;;;;;;;3.93;2.27;;;12.70;55.90;;;12.80;42.91;95185.50;4994434;28;20470;-56
2023/05/03 02:13:17;;;;;;;4.10;2.30;;;12.70;55.90;;;12.80;42.55;95185.50;4985809;28;20489;-56
2023/05/03 02:15:44;;;;;;;2.90;1.63;;;12.70;56.00;;;12.79;42.78;95181.19;4993163;28;20469;-56
2023/05/03 02:18:15;;;;;;;4.90;2.00;;;12.70;56.00;;;12.76;42.54;95170.91;4994285;28;20478;-71
2023/05/03 02:20:45;;;;;;;1.90;1.70;;;12.60;56.10;;;12.72;43.19;95172.22;4991588;28;20451;-55
2023/05/03 02:23:13;;;;;;;5.77;2.20;;;12.60;56.20;;;12.69;42.87;95177.78;4994480;28;20540;-72
2023/05/03 02:25:41;;;;;;;4.97;1.63;;;12.60;56.40;;;12.70;42.64;95179.41;4990718;28;20462;-72
2023/05/03 02:28:08;;;;;;;4.30;1.90;;;12.60;56.50;;;12.67;42.98;95174.44;4987284;28;20494;-58
2023/05/03 02:30:35;;;;;;;2.03;1.93;;;12.60;56.50;;;12.67;43.49;95177.06;4991422;28;20511;-70
2023/05/03 02:33:03;;;;;;;2.50;2.23;;;12.60;56.70;;;12.67;43.34;95190.25;4993256;28;20578;-72
2023/05/03 02:35:32;;;;;;;3.27;1.90;;;12.50;56.80;;;12.67;43.31;95185.00;4992031;28;20462;-57
2023/05/03 02:37:59;;;;;;;2.30;1.83;;;12.50;56.80;;;12.63;43.20;95168.63;4994441;28;20488;-57
2023/05/03 02:40:27;;;;;;;11.93;2.43;;;12.50;56.70;;;12.58;43.08;95168.22;4983761;28;20466;-72
2023/05/03 02:42:54;;;;;;;2.73;2.10;;;12.50;56.80;;;12.60;43.40;95178.66;4993470;28;20497;-71
2023/05/03 02:45:21;;;;;;;3.13;2.27;;;12.50;56.90;;;12.57;43.65;95186.84;4993938;28;20462;-72
2023/05/03 02:47:49;;;;;;;3.00;1.83;;;12.50;57.10;;;12.53;43.74;95195.06;4992942;28;20647;-55
2023/05/03 02:50:16;;;;;;;3.47;2.03;;;12.40;57.10;;;12.52;43.42;95193.38;4990973;28;20461;-57
2023/05/03 02:52:45;;;;;;;1.60;1.50;;;12.40;57.20;;;12.49;43.93;95206.84;4990349;28;21497;-58
2023/05/03 02:55:12;;;;;;;2.47;1.93;;;12.40;57.20;;;12.46;43.75;95199.22;4998538;28;20561;-72
2023/05/03 02:57:39;;;;;;;2.70;1.80;;;12.40;57.30;;;12.42;44.41;95186.47;4985613;28;20509;-55
2023/05/03 03:00:10;;;;;;;4.00;2.20;;;12.30;57.20;;;12.41;43.93;95175.09;4993791;28;20471;-72
2023/05/03 03:02:37;;;;;;;1.90;1.67;;;12.30;57.20;;;12.40;43.89;95191.06;4991969;28;20470;-72
2023/05/03 03:05:05;;;;;;;3.43;2.73;;;12.30;58.00;;;12.37;44.23;95193.00;4991175;28;20455;-75
2023/05/03 03:07:32;;;;;;;4.60;2.23;;;12.20;57.50;;;12.36;43.84;95196.63;4991551;28;20905;-56
2023/05/03 03:10:01;;;;;;;1.73;1.63;;;12.30;57.50;;;12.39;44.23;95203.41;4995384;28;20492;-73
2023/05/03 03:12:29;;;;;;;3.13;1.83;;;12.30;57.60;;;12.38;44.22;95217.59;4990238;28;20466;-74
2023/05/03 03:14:57;;;;;;;10.47;2.80;;;12.30;57.60;;;12.38;43.86;95210.50;4991133;28;20467;-72
2023/05/03 03:17:24;;;;;;;3.20;2.30;;;12.30;57.60;;;12.37;43.99;95208.00;4996548;28;20473;-58
2023/05/03 03:19:52;;;;;;;9.40;2.43;;;12.30;57.60;;;12.36;44.20;95214.25;4989841;28;20455;-56
2023/05/03 03:22:19;;;;;;;9.13;2.73;;;12.20;57.60;;;12.34;43.83;95203.84;4991727;28;20474;-73
2023/05/03 03:24:46;;;;;;;4.80;2.40;;;12.20;57.50;;;12.34;44.20;95205.66;4994118;28;20519;-72
2023/05/03 03:27:15;;;;;;;5.50;2.70;;;12.20;57.70;;;12.35;44.25;95223.16;4994958;28;21021;-74
2023/05/03 03:29:42;;;;;;;2.50;1.77;;;12.20;57.90;;;12.33;44.34;95214.53;4994430;28;21492;-72
2023/05/03 03:32:10;;;;;;;2.30;1.57;;;12.20;57.80;;;12.31;44.42;95211.22;4989357;28;21022;-72
2023/05/03 03:34:37;;;;;;;2.63;2.10;;;12.20;58.00;;;12.30;44.55;95225.34;4989476;28;20490;-57
2023/05/03 03:37:04;;;;;;;37.07;18.27;;;12.20;58.10;;;12.30;44.63;95226.22;4984212;28;20562;-72
2023/05/03 03:39:32;;;;;;;7.70;5.80;;;12.20;58.20;;;12.29;44.98;95243.00;4990229;28;20540;-55
2023/05/03 03:42:01;;;;;;;237.97;130.77;;;12.20;58.50;;;12.28;44.91;95245.78;4995635;28;20478;-56
2023/05/03 03:44:30;;;;;;;2.87;2.67;;;12.20;58.40;;;12.26;44.59;95238.00;4986965;28;20455;-73
2023/05/03 03:46:57;;;;;;;3.97;2.57;;;12.20;58.60;;;12.26;45.06;95242.47;4994089;28;20481;-74
2023/05/03 03:49:25;;;;;;;8.63;2.33;;;12.20;58.80;;;12.23;45.03;95245.38;4997778;28;20493;-72
2023/05/03 03:51:52;;;;;;;7.27;1.73;;;12.10;58.70;;;12.19;45.09;95245.66;4995655;28;20458;-75
2023/05/03 03:54:20;;;;;;;2.03;1.83;;;12.10;58.70;;;12.18;45.61;95243.97;4997869;28;20868;-57
2023/05/03 03:56:47;;;;;;;3.10;2.10;;;12.10;58.80;;;12.16;45.19;95243.31;5002090;28;20459;-75
2023/05/03 03:59:14;;;;;;;3.00;2.50;;;12.10;58.80;;;12.18;45.22;95249.25;4989253;28;21057;-75
2023/05/03 04:01:43;;;;;;;2.90;2.27;;;12.10;58.70;;;12.21;45.63;95250.78;4997566;28;20453;-77
2023/05/03 04:04:10;;;;;;;2.57;2.10;;;12.10;59.30;;;12.22;45.50;95268.25;4995705;28;20449;-75
2023/05/03 04:06:39;;;;;;;3.00;2.40;;;12.10;59.20;;;12.20;45.46;95255.22;4996608;28;20793;-57
2023/05/03 04:09:07;;;;;;;7.27;2.20;;;12.10;59.20;;;12.19;45.39;95255.34;4997643;28;20525;-76
2023/05/03 04:11:37;;;;;;;4.03;2.53;;;12.10;59.20;;;12.18;45.33;95265.06;4996608;28;20461;-74
2023/05/03 04:14:04;;;;;;;11.63;2.33;;;12.10;59.20;;;12.18;45.42;95269.53;4994187;28;20454;-76
2023/05/03 04:16:32;;;;;;;5.67;2.20;;;12.10;59.20;;;12.16;45.65;95260.91;4993216;28;20556;-57
2023/05/03 04:19:01;;;;;;;2.60;1.80;;;12.00;59.20;;;12.15;46.05;95280.34;4995670;28;20479;-74
2023/05/03 04:21:28;;;;;;;2.17;1.70;;;12.10;59.30;;;12.13;45.75;95264.69;4995417;28;20518;-56
2023/05/03 04:23:56;;;;;;;7.73;2.40;;;12.00;59.20;;;12.12;45.72;95280.63;4997584;28;21156;-59
2023/05/03 04:26:23;;;;;;;5.57;1.83;;;12.00;59.30;;;12.12;45.35;95270.91;5000421;28;20453;-57
2023/05/03 04:28:51;;;;;;;2.70;2.20;;;12.00;59.30;;;12.10;45.45;95278.13;4990442;28;20685;-58
2023/05/03 04:31:18;;;;;;;5.30;1.90;;;12.00;59.30;;;12.12;45.57;95297.28;4998266;28;20545;-57
2023/05/03 04:33:46;;;;;;;3.50;1.80;;;12.00;59.30;;;12.12;45.84;95286.72;4996125;28;20481;-74
2023/05/03 04:36:15;;;;;;;9.30;2.53;;;12.00;59.40;;;12.13;46.05;95290.19;4998836;28;20475;-57
2023/05/03 04:38:42;;;;;;;5.00;2.40;;;12.00;59.60;;;12.12;45.58;95302.56;4992535;28;20585;-76
2023/05/03 04:41:10;;;;;;;2.37;1.90;;;12.00;59.50;;;12.11;45.54;95292.97;4996654;28;20889;-56
2023/05/03 04:43:38;;;;;;;4.83;2.00;;;12.00;59.60;;;12.09;45.84;95304.63;4995900;28;20477;-56
2023/05/03 04:46:05;;;;;;;2.97;2.57;;;12.00;59.60;;;12.08;45.80;95301.16;4995208;28;20535;-72
2023/05/03 04:48:34;;;;;;;3.37;2.03;;;12.00;59.70;;;12.07;46.11;95314.47;4996541;28;20519;-57
2023/05/03 04:51:02;;;;;;;4.40;2.27;;;12.00;59.90;;;12.06;46.32;95313.66;4995007;28;20529;-57
2023/05/03 04:53:30;;;;;;;8.27;2.50;;;12.00;60.50;;;12.03;46.23;95311.28;4996170;28;20520;-73
2023/05/03 04:55:58;;;;;;;3.10;2.43;;;12.00;59.90;;;12.03;46.40;95308.66;4997838;28;20544;-55
2023/05/03 04:58:25;;;;;;;2.83;2.63;;;12.00;60.40;;;12.02;46.17;95322.78;4999648;28;20482;-59
2023/05/03 05:00:53;;;;;;;3.63;2.23;;;11.90;60.30;;;12.01;46.64;95324.59;4995580;28;20466;-71
2023/05/03 05:03:20;;;;;;;3.13;2.40;;;11.90;60.70;;;12.03;46.52;95345.56;4995092;28;20925;-57
2023/05/03 05:05:47;;;;;;;11.57;2.60;;;11.90;60.70;;;12.02;46.66;95328.06;4991196;28;20452;-57
2023/05/03 05:08:15;;;;;;;3.03;2.50;;;11.90;60.70;;;12.00;46.87;95327.38;4994582;28;20840;-72
2023/05/03 05:10:43;;;;;;;3.43;2.53;;;11.90;61.00;;;12.00;47.21;95351.94;4995682;28;20532;-57
2023/05/03 05:13:11;;;;;;;12.70;2.80;;;11.90;61.60;;;11.99;47.13;95371.38;4994227;28;20477;-56
2023/05/03 05:15:38;;;;;;;12.13;2.70;;;11.90;61.40;;;11.97;47.10;95348.75;4997076;28;20971;-56
2023/05/03 05:18:06;;;;;;;2.67;2.33;;;11.90;61.30;;;11.96;47.11;95354.97;4994807;28;20478;-56
2023/05/03 05:20:34;;;;;;;8.10;3.00;;;11.90;61.60;;;11.94;47.34;95343.75;4994514;28;20515;-56
2023/05/03 05:23:01;;;;;;;8.93;2.20;;;11.90;62.20;;;11.96;48.31;95360.25;4999360;28;20471;-74
2023/05/03 05:25:28;;;;;;;2.10;1.90;;;11.90;63.00;;;11.92;48.37;95359.69;4995427;28;20459;-57
2023/05/03 05:27:57;;;;;;;3.20;2.90;;;11.80;63.30;;;11.87;49.08;95350.50;5005730;28;20508;-70
2023/05/03 05:30:24;;;;;;;2.67;2.37;;;11.80;64.60;;;11.86;49.89;95360.22;4998383;28;20493;-58
2023/05/03 05:32:52;;;;;;;6.00;3.10;;;11.80;65.50;;;11.83;49.50;95358.69;4990703;28;20474;-72
2023/05/03 05:35:19;;;;;;;4.63;3.20;;;11.80;64.90;;;11.82;49.77;95354.38;4995545;28;20464;-72
2023/05/03 05:37:46;;;;;;;3.50;3.20;;;11.80;65.90;;;11.88;50.19;95352.16;4993952;28;20829;-56
2023/05/03 05:40:15;;;;;;;5.53;3.23;;;11.80;66.20;;;11.91;50.40;95358.00;4997783;28;20493;-71
2023/05/03 05:42:45;;;;;;;9.80;3.43;;;11.80;66.40;;;11.94;51.14;95360.38;4992128;28;20991;-71
2023/05/03 05:45:14;;;;;;;19.97;3.17;;;11.80;67.80;;;11.96;50.48;95365.53;4997033;28;20462;-71
2023/05/03 05:47:41;;;;;;;3.47;3.17;;;11.90;67.00;;;11.94;50.70;95356.94;4995918;28;20577;-67
2023/05/03 05:50:09;;;;;;;4.20;3.00;;;11.90;67.10;;;11.97;50.86;95356.66;4995695;28;20604;-72
2023/05/03 05:52:37;;;;;;;3.23;2.63;;;11.90;67.30;;;11.98;50.69;95359.16;4993858;28;20473;-56
2023/05/03 05:55:06;;;;;;;5.90;2.60;;;11.90;67.20;;;11.97;51.05;95367.19;4995577;28;20461;-56
2023/05/03 05:57:33;;;;;;;3.50;2.50;;;11.90;67.60;;;11.95;50.92;95355.97;4997845;28;20482;-73
2023/05/03 06:00:01;;;;;;;7.80;2.43;;;11.90;67.60;;;11.97;50.65;95359.28;4995418;28;20488;-71
2023/05/03 06:02:29;;;;;;;7.13;2.33;;;11.90;67.20;;;11.98;50.56;95353.06;4994512;28;20489;-72
2023/05/03 06:04:57;;;;;;;5.13;2.83;;;11.90;67.10;;;11.99;50.41;95355.56;4996894;28;20505;-57
2023/05/03 06:07:25;;;;;;;5.50;2.80;;;11.90;66.90;;;12.01;50.27;95352.78;4993314;28;20920;-71
2023/05/03 06:09:52;;;;;;;2.80;2.57;;;11.90;66.90;;;12.02;50.25;95367.63;4992498;28;20568;-56
2023/05/03 06:12:19;;;;;;;4.20;2.40;;;11.90;66.90;;;12.00;50.27;95356.38;4991129;28;20480;-55
2023/05/03 06:14:46;;;;;;;3.57;3.37;;;11.90;67.60;;;12.01;50.51;95361.50;4997114;28;20986;-57
2023/05/03 06:17:14;;;;;;;3.10;2.73;;;11.90;66.80;;;12.02;50.42;95350.00;4994731;28;20985;-57
2023/05/03 06:19:42;;;;;;;3.73;2.90;;;11.90;67.20;;;12.04;50.33;95360.41;4993514;28;20459;-71
2023/05/03 06:22:10;;;;;;;9.93;3.73;;;11.90;67.40;;;12.06;50.59;95350.56;4992980;28;20808;-71
2023/05/03 06:24:37;;;;;;;6.60;2.23;;;12.00;67.70;;;12.07;50.29;95348.75;4991806;28;20461;-71
2023/05/03 06:27:05;;;;;;;5.90;2.03;;;12.00;67.40;;;12.06;50.65;95358.47;4995258;28;20567;-73
2023/05/03 06:29:32;;;;;;;6.37;2.13;;;12.00;67.70;;;12.05;50.63;95356.78;4998639;28;21011;-57
2023/05/03 06:32:00;;;;;;;3.00;2.60;;;12.00;67.50;;;12.07;50.58;95340.84;4989881;28;20471;-71
2023/05/03 06:34:27;;;;;;;3.00;2.53;;;12.00;68.10;;;12.12;50.49;95352.66;4996692;28;20958;-72
2023/05/03 06:36:56;;;;;;;3.10;2.37;;;12.00;68.10;;;12.19;50.57;95337.94;4993384;28;20453;-56
2023/05/03 06:39:23;;;;;;;5.50;2.70;;;12.10;68.10;;;12.29;50.49;95339.75;4994676;28;20449;-57
2023/05/03 06:41:50;;;;;;;6.80;2.77;;;12.10;68.20;;;12.39;50.51;95343.22;4993567;28;20516;-72
2023/05/03 06:44:18;;;;;;;5.03;3.40;;;12.20;67.90;;;12.50;50.06;95332.53;4994000;28;20455;-71
2023/05/03 06:46:45;;;;;;;3.67;3.33;;;12.30;67.80;;;12.60;49.62;95334.34;4994405;28;20556;-56
2023/05/03 06:49:12;;;;;;;8.23;3.00;;;12.40;67.30;;;12.70;49.67;95329.84;4996227;28;20468;-72
2023/05/03 06:51:40;;;;;;;4.03;2.90;;;12.50;67.20;;;12.73;49.22;95329.56;4993356;28;20448;-57
2023/05/03 06:54:09;;;;;;;3.67;3.20;;;12.60;66.80;;;12.75;49.14;95327.66;4995020;28;20830;-71
2023/05/03 06:56:36;;;;;;;19.83;3.23;;;12.60;66.70;;;12.78;49.12;95323.88;4998567;28;20556;-57
2023/05/03 06:59:03;;;;;;;5.20;2.87;;;12.70;66.60;;;12.79;49.28;95321.09;4993690;28;20931;-56
2023/05/03 07:01:31;;;;;;;10.43;3.20;;;12.70;66.80;;;12.78;49.24;95314.16;4993979;28;20459;-56
2023/05/03 07:03:58;;;;;;;5.30;3.10;;;12.70;66.50;;;12.78;49.30;95318.59;4991772;28;20557;-71
2023/05/03 07:06:26;;;;;;;4.07;3.23;;;12.70;66.80;;;12.84;49.40;95320.66;4994155;28;20759;-70
2023/05/03 07:08:53;;;;;;;5.80;3.40;;;12.70;67.00;;;12.91;49.61;95319.94;4988107;28;20477;-71
2023/05/03 07:11:22;;;;;;;8.37;2.70;;;12.80;67.50;;;13.01;49.19;95305.88;4993830;28;20604;-56
2023/05/03 07:13:51;;;;;;;5.27;3.00;;;12.80;66.70;;;13.06;49.22;95317.69;4994866;28;20483;-72
2023/05/03 07:16:18;;;;;;;6.97;2.90;;;12.90;66.70;;;13.12;49.06;95310.16;4993524;28;20545;-72
2023/05/03 07:18:46;;;;;;;9.60;4.20;;;13.00;66.30;;;13.15;48.76;95321.28;4991716;28;20471;-57
2023/05/03 07:21:13;;;;;;;3.60;2.70;;;13.00;65.90;;;13.20;48.90;95321.69;4994963;28;20454;-72
2023/05/03 07:23:41;;;;;;;4.70;3.30;;;13.00;65.90;;;13.21;48.73;95315.41;4989444;28;20558;-57
2023/05/03 07:26:08;;;;;;;5.03;3.00;;;13.00;65.90;;;13.32;48.67;95324.13;4995548;28;21039;-57
2023/05/03 07:28:37;;;;;;;5.00;3.10;;;13.20;66.10;;;13.42;48.13;95317.03;4993884;28;20737;-71
2023/05/03 07:31:04;;;;;;;5.07;2.80;;;13.20;66.10;;;13.50;48.42;95319.75;4989580;28;20548;-71
2023/05/03 07:33:36;;;;;;;5.23;3.33;;;13.30;66.10;;;13.56;48.32;95321.00;4995526;28;20488;-57
2023/05/03 07:36:03;;;;;;;4.37;2.60;;;13.40;65.70;;;13.58;48.07;95338.34;4992032;28;20528;-58
2023/05/03 07:38:30;;;;;;;3.00;2.77;;;13.40;65.40;;;13.62;48.54;95341.56;4997149;28;20485;-71
2023/05/03 07:40:58;;;;;;;7.63;3.30;;;13.50;66.60;;;13.69;48.56;95323.28;5000410;28;20457;-70
2023/05/03 07:43:25;;;;;;;3.47;2.90;;;13.50;65.90;;;13.74;48.40;95321.88;4995807;28;20485;-71
2023/05/03 07:45:54;;;;;;;9.73;3.30;;;13.60;66.00;;;13.81;48.91;95322.09;4998746;28;20476;-58
2023/05/03 07:48:21;;;;;;;3.63;3.00;;;13.70;66.60;;;13.87;48.36;95321.50;5000207;28;20466;-72
2023/05/03 07:50:48;;;;;;;3.80;2.90;;;13.70;66.40;;;13.92;48.10;95319.25;4998230;28;20493;-58
2023/05/03 07:53:16;;;;;;;7.57;3.30;;;13.80;66.10;;;13.99;48.35;95324.78;4994637;28;20572;-71
2023/05/03 07:55:44;;;;;;;2.93;2.63;;;13.80;66.30;;;14.03;48.57;95327.94;4996372;28;21252;-72
2023/05/03 07:58:11;;;;;;;5.30;3.33;;;13.80;66.20;;;14.10;48.18;95326.38;4997882;28;20482;-71
2023/05/03 08:00:38;;;;;;;9.90;3.17;;;13.90;66.40;;;14.22;48.13;95327.81;4994250;28;20548;-57
2023/05/03 08:03:07;;;;;;;5.03;3.20;;;14.00;66.40;;;14.35;47.97;95317.66;4987985;28;20501;-72
2023/05/03 08:05:35;;;;;;;9.40;3.00;;;14.10;66.30;;;14.46;47.71;95313.97;4996890;28;21076;-56
2023/05/03 08:08:04;;;;;;;3.30;2.97;;;14.20;65.90;;;14.55;48.02;95316.66;5000012;28;20560;-73
2023/05/03 08:10:36;;;;;;;4.70;3.07;;;14.30;65.90;;;14.62;47.81;95346.88;4996661;28;20494;-74
2023/05/03 08:13:04;;;;;;;3.07;2.80;;;14.40;65.70;;;14.50;47.95;95323.25;4993990;28;20576;-71
2023/05/03 08:15:32;;;;;;;3.83;3.13;;;14.40;65.60;;;14.43;48.29;95329.31;4992604;28;20961;-71
2023/05/03 08:17:59;;;;;;;6.83;3.10;;;14.30;65.80;;;14.45;47.97;95325.56;4993240;28;21125;-73
2023/05/03 08:20:29;;;;;;;6.20;2.63;;;14.30;65.90;;;14.57;47.89;95334.06;4996109;28;20449;-72
2023/05/03 08:22:57;;;;;;;4.27;2.70;;;14.40;66.10;;;14.73;48.11;95343.97;4996574;28;20465;-57
2023/05/03 08:25:24;;;;;;;6.00;2.80;;;14.50;66.30;;;14.95;47.85;95353.25;4996199;28;20913;-71
2023/05/03 08:27:52;;;;;;;4.13;3.20;;;14.70;66.10;;;15.18;47.49;95337.69;5004288;28;20478;-63
2023/05/03 08:30:20;;;;;;;4.40;2.83;;;14.90;65.90;;;15.34;47.21;95342.22;4997252;28;20501;-57
2023/05/03 08:32:48;;;;;;;11.23;3.00;;;15.10;65.50;;;15.46;46.98;95334.00;4993597;28;20492;-72
2023/05/03 08:35:16;;;;;;;2.70;2.50;;;15.20;65.50;;;15.59;46.85;95337.06;4991395;28;20474;-59
2023/05/03 08:37:45;;;;;;;8.07;3.20;;;15.40;65.10;;;15.80;46.95;95336.69;4991578;28;20918;-71
2023/05/03 08:40:14;;;;;;;5.37;2.93;;;15.60;65.20;;;16.12;46.57;95340.41;4993928;28;20521;-57
2023/05/03 08:42:42;;;;;;;7.23;3.47;;;15.80;65.20;;;16.56;45.89;95336.63;4994718;28;20597;-56
2023/05/03 08:45:14;;;;;;;19.33;4.07;;;16.20;64.60;;;17.02;45.40;95331.69;4998175;28;20450;-57
2023/05/03 08:47:43;;;;;;;10.53;3.10;;;16.60;64.20;;;17.48;44.75;95331.91;4993984;28;20509;-57
2023/05/03 08:50:11;;;;;;;4.77;3.00;;;17.10;62.80;;;17.86;44.02;95317.94;4992980;28;20515;-59
2023/05/03 08:52:41;;;;;;;3.53;3.20;;;17.40;62.20;;;18.36;44.12;95339.84;4994039;28;20850;-73
2023/05/03 08:55:10;;;;;;;4.10;2.90;;;17.90;62.20;;;18.74;42.03;95359.38;4996910;28;20466;-56
2023/05/03 08:57:37;;;;;;;3.17;2.87;;;18.30;59.90;;;18.86;42.40;95335.81;4989610;28;20489;-57
2023/05/03 09:00:09;;;;;;;3.97;3.60;;;18.60;59.40;;;19.05;42.15;95328.34;4994441;28;20450;-71
2023/05/03 09:02:38;;;;;;;2.87;2.70;;;18.70;58.80;;;19.22;41.81;95331.66;4993401;28;20475;-73
2023/05/03 09:05:21;;;;;;;8.87;3.40;;;18.90;58.50;;;19.23;41.39;95325.34;4997329;28;20457;-57
2023/05/03 09:08:01;;;;;;;3.70;3.40;;;19.00;58.60;;;19.15;41.54;95339.56;4993872;28;21066;-71
2023/05/03 09:10:30;;;;;;;6.90;3.10;;;18.90;58.20;;;19.05;41.62;95344.31;4991126;28;20989;-57
2023/05/03 09:12:59;;;;;;;3.10;2.90;;;18.80;58.00;;;18.81;41.68;95332.84;4998037;28;20597;-71
2023/05/03 09:15:28;;;;;;;4.27;3.33;;;18.60;58.00;;;18.69;42.04;95321.78;4991328;28;20993;-56
2023/05/03 09:18:16;;;;;;;6.90;3.23;;;18.50;58.70;;;18.70;42.14;95322.59;4995169;28;20505;-72
2023/05/03 09:20:50;;;;;;;5.97;2.97;;;18.50;58.70;;;18.80;42.45;95309.88;4994937;28;20454;-72
2023/05/03 09:23:17;;;;;;;8.17;2.83;;;18.50;58.70;;;18.89;41.97;95319.47;4996509;28;20472;-73
2023/05/03 09:25:47;;;;;;;8.00;3.20;;;18.60;58.80;;;19.01;42.00;95301.22;4996777;28;20489;-56
2023/05/03 09:28:15;;;;;;;3.30;3.07;;;18.70;58.80;;;19.14;41.61;95305.91;4993736;28;20569;-57
2023/05/03 09:30:43;;;;;;;3.93;3.03;;;18.80;58.20;;;19.19;41.72;95297.38;4995337;28;21297;-58
2023/05/03 09:33:11;;;;;;;8.10;3.90;;;18.90;58.20;;;19.30;41.75;95316.44;4996859;28;20530;-70
2023/05/03 09:35:38;;;;;;;3.00;2.70;;;18.90;58.50;;;19.39;41.58;95292.31;4995163;28;20945;-71
2023/05/03 09:38:06;;;;;;;7.23;3.23;;;19.10;58.40;;;19.40;41.15;95278.78;4996790;28;20653;-56
2023/05/03 09:40:33;;;;;;;3.90;3.40;;;19.10;58.00;;;19.42;41.29;95286.63;4992756;28;20458;-71
2023/05/03 09:43:13;;;;;;;2.93;2.73;;;19.10;57.90;;;19.39;40.94;95281.66;4995354;28;20552;-57
2023/05/03 09:45:40;;;;;;;6.53;3.90;;;19.10;57.70;;;19.38;41.74;95272.81;4993933;28;20453;-56
2023/05/03 09:48:08;;;;;;;9.10;2.90;;;19.10;58.10;;;19.61;41.63;95278.06;4994555;28;20478;-58
2023/05/03 09:50:36;;;;;;;3.33;3.13;;;19.30;58.30;;;19.81;41.21;95269.47;4989091;28;20493;-71
2023/05/03 09:53:05;;;;;;;4.13;3.70;;;19.40;57.90;;;19.92;40.77;95271.66;4992940;28;20473;-57
2023/05/03 09:55:33;;;;;;;10.30;3.43;;;19.50;57.80;;;20.01;40.52;95269.72;4993972;28;20486;-56
2023/05/03 09:58:05;;;;;;;3.87;3.17;;;19.60;57.40;;;20.16;40.46;95272.34;4995189;28;20664;-57
2023/05/03 10:00:37;;;;;;;3.70;3.30;;;19.80;57.40;;;20.46;40.20;95272.22;4997599;28;20958;-71
2023/05/03 10:03:08;;;;;;;7.57;3.63;;;20.00;57.30;;;20.73;39.81;95260.78;4994847;28;20581;-71
2023/05/03 10:05:39;;;;;;;5.10;3.10;;;20.30;56.80;;;21.00;39.38;95263.63;4993854;28;20482;-72
2023/05/03 10:08:06;;;;;;;7.80;3.10;;;20.50;56.40;;;21.26;39.31;95252.28;4989905;28;20860;-71
2023/05/03 10:10:33;;;;;;;6.03;3.43;;;20.80;56.30;;;21.51;39.10;95254.50;4994763;28;20483;-71
2023/05/03 10:13:01;;;;;;;3.60;3.30;;;21.10;56.30;;;21.67;38.23;95256.84;4996812;28;20486;-57
2023/05/03 10:15:29;;;;;;;7.63;3.00;;;21.20;55.20;;;21.78;37.95;95249.25;4989392;28;20457;-57
2023/05/03 10:17:58;;;;;;;3.40;3.10;;;21.30;54.40;;;21.67;38.07;95258.69;4994106;28;20490;-59
2023/05/03 10:20:30;;;;;;;5.93;3.00;;;21.30;54.60;;;21.66;37.97;95254.38;4993593;28;20523;-72
2023/05/03 10:23:13;;;;;;;6.13;3.40;;;21.30;54.30;;;21.70;37.58;95249.44;4991459;28;20549;-57